createdAt,value
2022-10-30T00:01:00.406Z,75.81
2022-10-30T00:03:45.784Z,75.88
2022-10-30T00:06:13.737Z,76.18
2022-10-30T00:08:58.917Z,76.27
2022-10-30T00:11:26.945Z,76.42
2022-10-30T00:13:54.628Z,76.38
2022-10-30T00:16:40.162Z,76.52
2022-10-30T00:19:07.975Z,76.72
2022-10-30T00:21:35.701Z,76.87
2022-10-30T00:24:03.741Z,76.89
2022-10-30T00:26:32.405Z,76.92
2022-10-30T00:29:00.083Z,76.95
2022-10-30T00:31:28.058Z,76.89
2022-10-30T00:33:56.113Z,77.03
2022-10-30T00:36:24.045Z,76.95
2022-10-30T00:38:52.021Z,77.01
2022-10-30T00:41:24.119Z,77.00
2022-10-30T00:44:43.558Z,77.16
2022-10-30T00:47:41.586Z,77.18
2022-10-30T00:50:19.598Z,77.47
2022-10-30T00:52:56.898Z,77.64
2022-10-30T00:55:52.057Z,77.71
2022-10-30T00:58:46.465Z,77.75
2022-10-30T01:02:04.776Z,77.73
2022-10-30T01:04:37.891Z,77.70
2022-10-30T01:07:10.916Z,77.94
2022-10-30T01:09:40.983Z,78.00
2022-10-30T01:12:09.727Z,77.99
2022-10-30T01:14:43.495Z,78.00
2022-10-30T01:17:36.797Z,78.09
2022-10-30T01:20:32.930Z,78.05
2022-10-30T01:23:39.492Z,78.31
2022-10-30T01:26:21.155Z,78.15
2022-10-30T01:29:07.527Z,78.43
2022-10-30T01:31:57.939Z,78.53
2022-10-30T01:34:51.573Z,78.75
2022-10-30T01:37:45.967Z,78.60
2022-10-30T01:40:16.343Z,78.78
2022-10-30T01:43:02.088Z,79.05
2022-10-30T01:45:54.584Z,79.07
2022-10-30T01:48:42.975Z,79.34
2022-10-30T01:51:38.699Z,79.25
2022-10-30T01:54:40.670Z,79.47
2022-10-30T01:57:24.252Z,79.70
2022-10-30T02:00:04.055Z,79.77
2022-10-30T02:02:42.061Z,79.81
2022-10-30T02:05:38.933Z,79.82
2022-10-30T02:08:07.240Z,79.99
2022-10-30T02:10:38.250Z,80.03
2022-10-30T02:13:23.631Z,80.08
2022-10-30T02:15:51.794Z,79.93
2022-10-30T02:18:19.733Z,80.02
2022-10-30T02:21:05.058Z,80.10
2022-10-30T02:23:33.038Z,80.21
2022-10-30T02:26:01.342Z,80.36
2022-10-30T02:28:29.376Z,80.56
2022-10-30T02:30:59.518Z,80.71
2022-10-30T02:33:49.138Z,81.00
2022-10-30T02:36:34.213Z,81.22
2022-10-30T02:39:06.660Z,81.35
2022-10-30T02:41:37.178Z,81.44
2022-10-30T02:44:06.750Z,81.23
2022-10-30T02:46:35.066Z,81.20
2022-10-30T02:49:20.372Z,81.37
2022-10-30T02:51:48.597Z,81.31
2022-10-30T02:54:34.637Z,81.31
2022-10-30T02:57:02.896Z,81.42
2022-10-30T02:59:30.616Z,81.44
2022-10-30T03:02:16.536Z,81.20
2022-10-30T03:04:44.575Z,81.21
2022-10-30T03:07:12.914Z,81.10
2022-10-30T03:09:40.887Z,81.21
2022-10-30T03:12:09.050Z,81.02
2022-10-30T03:14:36.841Z,81.00
2022-10-30T03:17:05.530Z,80.92
2022-10-30T03:19:33.265Z,81.09
2022-10-30T03:22:01.107Z,81.31
2022-10-30T03:24:46.997Z,81.50
2022-10-30T03:27:14.868Z,81.80
2022-10-30T03:29:42.511Z,81.67
2022-10-30T03:32:11.037Z,81.54
2022-10-30T03:34:46.515Z,81.57
2022-10-30T03:37:14.432Z,81.75
2022-10-30T03:39:42.045Z,82.04
2022-10-30T03:42:09.908Z,82.32
2022-10-30T03:44:37.682Z,82.52
2022-10-30T03:47:05.604Z,82.57
2022-10-30T03:49:36.907Z,82.53
2022-10-30T03:52:08.292Z,82.48
2022-10-30T03:54:35.900Z,82.45
2022-10-30T03:57:21.433Z,82.49
2022-10-30T04:00:12.838Z,82.24
2022-10-30T04:02:48.659Z,82.16
2022-10-30T04:05:43.009Z,82.20
2022-10-30T04:08:29.419Z,82.33
2022-10-30T04:10:57.777Z,82.31
2022-10-30T04:13:25.451Z,82.17
2022-10-30T04:15:58.033Z,82.25
2022-10-30T04:18:46.837Z,82.14
2022-10-30T04:21:15.155Z,82.15
2022-10-30T04:23:44.218Z,81.90
2022-10-30T04:26:32.891Z,81.94
2022-10-30T04:29:04.014Z,82.18
2022-10-30T04:31:36.300Z,82.68
2022-10-30T04:34:04.150Z,82.90
2022-10-30T04:36:36.113Z,82.90
2022-10-30T04:39:04.621Z,82.88
2022-10-30T04:41:37.057Z,83.03
2022-10-30T04:44:10.725Z,83.05
2022-10-30T04:46:45.609Z,83.04
2022-10-30T04:49:40.320Z,83.13
2022-10-30T04:52:09.191Z,83.00
2022-10-30T04:54:36.888Z,83.25
2022-10-30T04:57:05.017Z,83.35
2022-10-30T04:59:51.651Z,83.34
2022-10-30T05:02:25.180Z,83.48
2022-10-30T05:06:04.844Z,83.58
2022-10-30T05:08:33.359Z,83.47
2022-10-30T05:11:10.613Z,83.53
2022-10-30T05:13:42.712Z,83.44
2022-10-30T05:16:11.081Z,83.54
2022-10-30T05:18:45.947Z,83.74
2022-10-30T05:21:31.394Z,83.95
2022-10-30T05:24:25.380Z,84.14
2022-10-30T05:26:53.271Z,84.48
2022-10-30T05:29:21.183Z,84.41
2022-10-30T05:32:06.399Z,84.23
2022-10-30T05:34:57.672Z,84.05
2022-10-30T05:37:26.593Z,84.56
2022-10-30T05:39:54.357Z,84.83
2022-10-30T05:42:32.100Z,84.74
2022-10-30T05:45:05.518Z,84.84
2022-10-30T05:47:58.484Z,84.91
2022-10-30T05:50:46.052Z,84.73
2022-10-30T05:53:50.065Z,84.73
2022-10-30T05:56:45.000Z,85.02
2022-10-30T05:59:26.633Z,85.26
2022-10-30T06:02:12.364Z,85.38
2022-10-30T06:05:05.903Z,85.03
2022-10-30T06:07:55.695Z,85.19
2022-10-30T06:10:42.585Z,85.13
2022-10-30T06:13:36.478Z,85.16
2022-10-30T06:16:28.968Z,84.98
2022-10-30T06:19:50.943Z,85.16
2022-10-30T06:23:10.653Z,85.14
2022-10-30T06:26:16.804Z,85.23
2022-10-30T06:28:59.608Z,85.30
2022-10-30T06:31:27.732Z,85.14
2022-10-30T06:34:27.594Z,85.31
2022-10-30T06:40:36.567Z,84.97
2022-10-30T06:43:36.050Z,84.89
2022-10-30T06:46:19.994Z,84.74
2022-10-30T06:48:48.362Z,84.75
2022-10-30T06:51:19.805Z,84.78
2022-10-30T06:54:07.464Z,84.55
2022-10-30T06:56:50.665Z,84.29
2022-10-30T07:00:10.050Z,84.29
2022-10-30T07:03:01.911Z,84.18
2022-10-30T07:05:33.227Z,84.30
2022-10-30T07:08:28.034Z,84.18
2022-10-30T07:10:58.497Z,84.15
2022-10-30T07:14:07.415Z,83.91
2022-10-30T07:16:56.288Z,83.92
2022-10-30T07:19:26.493Z,83.52
2022-10-30T07:22:13.790Z,83.47
2022-10-30T07:25:02.961Z,83.35
2022-10-30T07:28:09.434Z,83.32
2022-10-30T07:30:50.292Z,83.33
2022-10-30T07:33:48.204Z,83.18
2022-10-30T07:36:29.043Z,83.06
2022-10-30T07:39:48.406Z,82.85
2022-10-30T07:43:13.363Z,82.54
2022-10-30T07:45:48.228Z,82.53
2022-10-30T07:48:48.386Z,82.44
2022-10-30T07:51:48.440Z,82.31
2022-10-30T07:54:16.863Z,82.16
2022-10-30T07:57:11.782Z,81.97
2022-10-30T08:00:49.267Z,81.69
2022-10-30T08:03:36.697Z,81.37
2022-10-30T08:06:29.442Z,81.10
2022-10-30T08:08:57.746Z,80.82
2022-10-30T08:12:06.646Z,80.53
2022-10-30T08:14:35.672Z,80.21
2022-10-30T08:17:10.962Z,79.84
2022-10-30T08:23:03.880Z,79.25
2022-10-30T08:25:49.169Z,79.14
2022-10-30T08:28:16.922Z,78.92
2022-10-30T08:31:29.131Z,78.49
2022-10-30T08:34:31.881Z,78.10
2022-10-30T08:37:17.667Z,77.89
2022-10-30T08:40:11.535Z,77.78
2022-10-30T08:43:26.924Z,77.65
2022-10-30T08:50:04.907Z,76.98
2022-10-30T08:52:38.885Z,76.82
2022-10-30T08:55:14.122Z,76.57
2022-10-30T08:58:10.272Z,76.39
2022-10-30T09:00:39.002Z,76.17
2022-10-30T09:03:34.144Z,76.02
2022-10-30T09:06:20.700Z,76.06
2022-10-30T09:09:23.429Z,75.52
2022-10-30T09:11:54.218Z,75.29
2022-10-30T09:14:22.088Z,75.01
2022-10-30T09:16:50.576Z,74.57
2022-10-30T09:19:38.096Z,74.39
2022-10-30T09:22:10.585Z,74.17
2022-10-30T09:24:57.700Z,73.90
2022-10-30T09:27:44.241Z,73.99
2022-10-30T09:30:13.576Z,73.62
2022-10-30T09:32:47.312Z,73.31
2022-10-30T09:35:37.782Z,73.00
2022-10-30T09:38:05.797Z,72.66
2022-10-30T09:40:54.223Z,72.19
2022-10-30T09:44:26.468Z,71.86
2022-10-30T09:47:00.040Z,71.29
2022-10-30T09:49:47.501Z,70.96
2022-10-30T09:52:24.571Z,70.66
2022-10-30T09:55:16.630Z,70.27
2022-10-30T09:57:50.844Z,70.04
2022-10-30T10:00:22.684Z,69.57
2022-10-30T10:03:13.118Z,69.40
2022-10-30T10:05:59.222Z,69.07
2022-10-30T10:09:17.099Z,68.94
2022-10-30T10:12:24.990Z,67.76
2022-10-30T10:14:54.785Z,67.22
2022-10-30T10:17:34.906Z,67.18
2022-10-30T10:20:05.724Z,67.03
2022-10-30T10:22:53.703Z,66.33
2022-10-30T10:25:21.522Z,65.84
2022-10-30T10:27:58.011Z,65.44
2022-10-30T10:30:38.706Z,65.25
2022-10-30T10:33:26.410Z,65.01
2022-10-30T10:36:12.273Z,64.14
2022-10-30T10:39:08.098Z,63.51
2022-10-30T10:42:03.167Z,62.75
2022-10-30T10:44:53.539Z,62.47
2022-10-30T10:47:23.897Z,62.48
2022-10-30T10:50:28.693Z,62.28
2022-10-30T10:53:07.305Z,61.91
2022-10-30T10:55:37.933Z,61.90
2022-10-30T10:58:25.075Z,61.62
2022-10-30T11:00:58.409Z,61.37
2022-10-30T11:03:39.627Z,60.99
2022-10-30T11:06:29.986Z,60.97
2022-10-30T11:09:24.528Z,60.56
2022-10-30T11:11:55.267Z,60.41
2022-10-30T11:14:29.478Z,60.14
2022-10-30T11:17:39.440Z,60.02
2022-10-30T11:20:21.100Z,59.59
2022-10-30T11:22:51.893Z,59.50
2022-10-30T11:25:37.443Z,59.20
2022-10-30T11:28:05.748Z,58.64
2022-10-30T11:30:33.359Z,58.17
2022-10-30T11:33:21.627Z,58.14
2022-10-30T11:36:15.533Z,57.77
2022-10-30T11:38:45.242Z,57.39
2022-10-30T11:41:14.257Z,57.68
2022-10-30T11:43:59.363Z,57.44
2022-10-30T11:46:27.235Z,57.15
2022-10-30T11:48:55.370Z,56.88
2022-10-30T11:51:41.189Z,56.45
2022-10-30T11:54:20.243Z,56.23
2022-10-30T11:57:24.783Z,55.88
2022-10-30T11:59:55.488Z,55.62
2022-10-30T12:02:28.252Z,55.19
2022-10-30T12:05:02.076Z,54.93
2022-10-30T12:07:34.612Z,54.47
2022-10-30T12:10:27.748Z,53.87
2022-10-30T12:12:56.346Z,53.25
2022-10-30T12:15:26.861Z,52.47
2022-10-30T12:17:59.920Z,52.34
2022-10-30T12:20:29.175Z,52.37
2022-10-30T12:22:58.146Z,52.24
2022-10-30T12:25:48.081Z,52.31
2022-10-30T12:28:20.330Z,52.03
2022-10-30T12:30:56.617Z,51.77
2022-10-30T12:33:52.258Z,51.62
2022-10-30T12:36:26.714Z,50.97
2022-10-30T12:39:03.037Z,51.05
2022-10-30T12:41:42.732Z,50.89
2022-10-30T12:44:19.346Z,50.61
2022-10-30T12:46:54.887Z,50.31
2022-10-30T12:49:42.808Z,50.21
2022-10-30T12:52:24.728Z,50.05
2022-10-30T12:55:01.209Z,49.75
2022-10-30T12:57:36.090Z,49.49
2022-10-30T13:00:15.704Z,49.09
2022-10-30T13:03:05.535Z,48.56
2022-10-30T13:06:21.099Z,48.01
2022-10-30T13:09:10.750Z,47.35
2022-10-30T13:11:51.568Z,47.22
2022-10-30T13:14:36.677Z,47.42
2022-10-30T13:17:04.720Z,47.69
2022-10-30T13:19:32.326Z,47.95
2022-10-30T13:22:08.532Z,48.29
2022-10-30T13:25:13.144Z,48.41
2022-10-30T13:27:48.095Z,48.33
2022-10-30T13:30:19.700Z,48.40
2022-10-30T13:33:09.394Z,48.19
2022-10-30T13:36:08.136Z,47.83
2022-10-30T13:38:54.005Z,47.40
2022-10-30T13:41:47.858Z,47.09
2022-10-30T13:44:28.099Z,46.62
2022-10-30T13:47:16.334Z,46.08
2022-10-30T13:49:46.867Z,45.62
2022-10-30T13:52:17.652Z,45.62
2022-10-30T13:54:48.814Z,45.54
2022-10-30T13:57:40.613Z,45.28
2022-10-30T14:00:26.593Z,44.89
2022-10-30T14:03:28.340Z,44.46
2022-10-30T14:06:33.795Z,44.59
2022-10-30T14:09:39.626Z,44.47
2022-10-30T14:12:56.375Z,44.20
2022-10-30T14:15:24.250Z,43.94
2022-10-30T14:18:23.737Z,44.11
2022-10-30T14:20:53.328Z,44.22
2022-10-30T14:23:38.785Z,44.11
2022-10-30T14:26:06.564Z,43.90
2022-10-30T14:28:39.903Z,44.04
2022-10-30T14:31:20.042Z,44.15
2022-10-30T14:33:53.238Z,44.23
2022-10-30T14:36:24.058Z,44.09
2022-10-30T14:39:13.202Z,43.92
2022-10-30T14:42:23.590Z,44.10
2022-10-30T14:45:25.852Z,44.25
2022-10-30T14:48:11.543Z,44.19
2022-10-30T14:51:18.459Z,44.40
2022-10-30T14:54:24.378Z,44.63
2022-10-30T14:57:43.142Z,45.09
2022-10-30T15:00:37.112Z,45.51
2022-10-30T15:03:15.004Z,45.85
2022-10-30T15:06:12.142Z,46.30
2022-10-30T15:09:11.359Z,46.83
2022-10-30T15:11:51.165Z,47.31
2022-10-30T15:17:43.609Z,48.32
2022-10-30T15:20:32.494Z,48.76
2022-10-30T15:23:08.785Z,49.27
2022-10-30T15:25:45.552Z,49.72
2022-10-30T15:28:40.119Z,50.02
2022-10-30T15:31:23.505Z,50.65
2022-10-30T15:33:53.266Z,51.16
2022-10-30T15:36:40.336Z,51.66
2022-10-30T15:39:15.466Z,52.19
2022-10-30T15:42:04.370Z,52.93
2022-10-30T15:44:35.184Z,53.24
2022-10-30T15:47:05.377Z,53.87
2022-10-30T15:49:41.776Z,54.34
2022-10-30T15:52:19.333Z,54.83
2022-10-30T15:54:52.158Z,55.22
2022-10-30T15:58:00.905Z,55.78
2022-10-30T16:00:28.811Z,56.44
2022-10-30T16:03:18.224Z,56.96
2022-10-30T16:06:05.458Z,57.70
2022-10-30T16:08:50.941Z,58.08
2022-10-30T16:11:20.967Z,58.56
2022-10-30T16:13:49.988Z,58.96
2022-10-30T16:16:24.615Z,59.24
2022-10-30T16:18:53.927Z,59.71
2022-10-30T16:21:23.766Z,60.04
2022-10-30T16:23:55.202Z,60.45
2022-10-30T16:26:35.708Z,61.05
2022-10-30T16:29:24.739Z,61.42
2022-10-30T16:31:53.465Z,61.65
2022-10-30T16:34:37.417Z,61.97
2022-10-30T16:37:06.812Z,62.26
2022-10-30T16:39:36.923Z,62.61
2022-10-30T16:42:25.735Z,63.27
2022-10-30T16:45:11.695Z,63.55
2022-10-30T16:47:44.048Z,63.75
2022-10-30T16:50:16.049Z,64.31
2022-10-30T16:52:44.109Z,64.73
2022-10-30T16:55:21.327Z,65.01
2022-10-30T16:57:55.895Z,65.45
2022-10-30T17:00:27.416Z,65.72
2022-10-30T17:02:58.943Z,65.94
2022-10-30T17:05:34.104Z,66.41
2022-10-30T17:08:26.153Z,66.69
2022-10-30T17:11:03.003Z,66.89
2022-10-30T17:13:36.873Z,67.37
2022-10-30T17:16:20.369Z,67.42
2022-10-30T17:18:57.647Z,67.84
2022-10-30T17:21:40.929Z,67.86
2022-10-30T17:24:28.436Z,68.22
2022-10-30T17:27:30.380Z,68.21
2022-10-30T17:29:58.433Z,68.14
2022-10-30T17:32:41.375Z,67.92
2022-10-30T17:35:27.264Z,67.79
2022-10-30T17:37:58.393Z,67.55
2022-10-30T17:40:47.680Z,67.29
2022-10-30T17:43:15.588Z,67.24
2022-10-30T17:45:44.371Z,67.19
2022-10-30T17:48:17.711Z,66.97
2022-10-30T17:50:45.575Z,66.38
2022-10-30T17:53:16.413Z,66.35
2022-10-30T17:55:49.610Z,66.20
2022-10-30T17:58:37.039Z,66.15
2022-10-30T18:01:05.124Z,66.36
2022-10-30T18:03:32.874Z,66.29
2022-10-30T18:06:02.164Z,66.30
2022-10-30T18:08:29.945Z,66.14
2022-10-30T18:10:57.521Z,66.04
2022-10-30T18:13:25.210Z,66.13
2022-10-30T18:15:56.021Z,66.02
2022-10-30T18:18:41.820Z,65.95
2022-10-30T18:21:18.720Z,65.86
2022-10-30T18:23:52.324Z,65.92
2022-10-30T18:26:25.260Z,66.21
2022-10-30T18:28:53.281Z,66.12
2022-10-30T18:31:23.552Z,66.36
2022-10-30T18:34:18.355Z,66.22
2022-10-30T18:36:46.411Z,66.46
2022-10-30T18:39:14.096Z,66.41
2022-10-30T18:41:46.475Z,66.53
2022-10-30T18:44:18.854Z,66.49
2022-10-30T18:46:46.817Z,66.49
2022-10-30T18:49:14.564Z,66.53
2022-10-30T18:51:42.367Z,66.60
2022-10-30T18:54:16.998Z,66.62
2022-10-30T18:56:44.891Z,66.76
2022-10-30T18:59:12.522Z,66.92
2022-10-30T19:01:40.648Z,67.03
2022-10-30T19:04:26.217Z,67.12
2022-10-30T19:06:54.116Z,67.20
2022-10-30T19:09:21.913Z,67.32
2022-10-30T19:11:49.531Z,67.46
2022-10-30T19:14:17.179Z,67.65
2022-10-30T19:16:44.890Z,67.73
2022-10-30T19:19:15.020Z,67.85
2022-10-30T19:21:43.438Z,67.96
2022-10-30T19:24:15.231Z,68.05
2022-10-30T19:26:42.865Z,68.15
2022-10-30T19:29:28.431Z,68.30
2022-10-30T19:31:56.189Z,68.40
2022-10-30T19:34:23.775Z,68.59
2022-10-30T19:36:51.678Z,68.69
2022-10-30T19:39:19.468Z,68.83
2022-10-30T19:41:47.107Z,68.93
2022-10-30T19:44:15.057Z,69.11
2022-10-30T19:46:42.694Z,69.28
2022-10-30T19:49:18.263Z,69.49
2022-10-30T19:52:04.745Z,69.70
2022-10-30T19:54:32.876Z,69.85
2022-10-30T19:57:00.459Z,70.12
2022-10-30T19:59:28.076Z,70.18
2022-10-30T20:01:57.337Z,70.34
2022-10-30T20:04:43.117Z,70.67
2022-10-30T20:07:10.900Z,70.86
2022-10-30T20:09:38.648Z,71.30
2022-10-30T20:12:06.891Z,71.55
2022-10-30T20:14:34.694Z,71.89
2022-10-30T20:17:19.761Z,72.16
2022-10-30T20:19:47.473Z,72.09
2022-10-30T20:22:15.051Z,72.21
2022-10-30T20:24:42.818Z,72.47
2022-10-30T20:27:10.993Z,72.81
2022-10-30T20:29:42.548Z,73.19
2022-10-30T20:32:28.121Z,73.47
2022-10-30T20:34:55.801Z,73.68
2022-10-30T20:37:23.856Z,73.90
2022-10-30T20:39:51.897Z,74.08
2022-10-30T20:42:21.904Z,74.23
2022-10-30T20:44:49.666Z,74.51
2022-10-30T20:47:17.689Z,74.59
2022-10-30T20:50:03.057Z,74.79
2022-10-30T20:52:48.763Z,74.94
2022-10-30T20:55:35.256Z,75.07
2022-10-30T20:58:03.634Z,75.20
2022-10-30T21:00:31.374Z,75.25
2022-10-30T21:03:02.336Z,75.47
2022-10-30T21:05:43.433Z,75.56
2022-10-30T21:08:13.875Z,75.60
2022-10-30T21:10:42.478Z,75.83
2022-10-30T21:13:28.885Z,75.97
2022-10-30T21:16:01.646Z,76.12
2022-10-30T21:18:29.678Z,76.25
2022-10-30T21:21:21.558Z,76.29
2022-10-30T21:23:56.456Z,76.40
2022-10-30T21:26:24.869Z,76.48
2022-10-30T21:29:11.107Z,76.61
2022-10-30T21:31:38.936Z,76.65
2022-10-30T21:34:24.271Z,76.70
2022-10-30T21:36:52.334Z,76.86
2022-10-30T21:39:19.940Z,77.17
2022-10-30T21:42:05.694Z,77.24
2022-10-30T21:44:33.465Z,77.33
2022-10-30T21:47:01.295Z,77.34
2022-10-30T21:49:29.066Z,77.52
2022-10-30T21:51:56.876Z,77.74
2022-10-30T21:54:24.538Z,77.76
2022-10-30T21:56:52.362Z,77.88
2022-10-30T21:59:20.091Z,77.93
2022-10-30T22:01:47.865Z,77.73
2022-10-30T22:04:16.502Z,77.81
2022-10-30T22:06:44.472Z,77.77
2022-10-30T22:09:29.734Z,77.89
2022-10-30T22:11:57.344Z,77.80
2022-10-30T22:14:25.526Z,77.89
2022-10-30T22:16:53.292Z,77.85
2022-10-30T22:19:21.041Z,77.81
2022-10-30T22:21:48.652Z,77.86
2022-10-30T22:24:17.337Z,77.89
2022-10-30T22:26:46.300Z,77.97
2022-10-30T22:29:13.954Z,77.95
2022-10-30T22:31:41.790Z,78.18
2022-10-30T22:34:09.487Z,78.10
2022-10-30T22:36:37.095Z,78.13
2022-10-30T22:39:07.711Z,78.29
2022-10-30T22:41:37.947Z,78.24
2022-10-30T22:44:08.363Z,78.16
2022-10-30T22:46:54.642Z,78.24
2022-10-30T22:49:22.556Z,78.25
2022-10-30T22:52:08.067Z,78.26
2022-10-30T22:54:35.837Z,78.25
2022-10-30T22:57:03.544Z,78.25
2022-10-30T22:59:31.256Z,78.29
2022-10-30T23:01:59.145Z,78.24
2022-10-30T23:04:26.799Z,78.29
2022-10-30T23:06:54.600Z,78.37
2022-10-30T23:09:22.608Z,78.42
2022-10-30T23:11:50.797Z,78.40
2022-10-30T23:14:19.328Z,78.03
2022-10-30T23:16:47.325Z,77.73
2022-10-30T23:19:14.964Z,77.56
2022-10-30T23:21:44.332Z,77.59
2022-10-30T23:24:12.224Z,78.06
2022-10-30T23:26:40.015Z,78.16
2022-10-30T23:29:07.864Z,78.35
2022-10-30T23:31:41.091Z,78.52
2022-10-30T23:34:13.565Z,78.61
2022-10-30T23:36:42.566Z,78.99
2022-10-30T23:39:14.502Z,79.52
2022-10-30T23:41:42.258Z,79.68
2022-10-30T23:44:14.733Z,79.80
2022-10-30T23:46:43.261Z,79.53
2022-10-30T23:49:11.025Z,79.50
2022-10-30T23:51:39.016Z,79.85
2022-10-30T23:54:06.830Z,79.94
2022-10-30T23:56:34.638Z,80.00
2022-10-30T23:59:02.319Z,79.95
